sensor_id;sensor_type;location;lat;lon;timestamp;temperature;humidity
86371;SHT35;77020;52.136;5.424;2024-03-22T09:06:05;17.01;72.10
86371;SHT35;77020;52.136;5.424;2024-03-22T09:08:34;16.96;73.51
86371;SHT35;77020;52.136;5.424;2024-03-22T09:11:03;16.98;74.25
86371;SHT35;77020;52.136;5.424;2024-03-22T09:13:32;17.06;73.42
86371;SHT35;77020;52.136;5.424;2024-03-22T09:16:02;17.16;73.18
86371;SHT35;77020;52.136;5.424;2024-03-22T09:18:31;17.27;72.72
86371;SHT35;77020;52.136;5.424;2024-03-22T09:21:00;17.39;72.77
86371;SHT35;77020;52.136;5.424;2024-03-22T09:23:29;17.50;72.46
86371;SHT35;77020;52.136;5.424;2024-03-22T09:25:58;17.61;72.42
86371;SHT35;77020;52.136;5.424;2024-03-22T09:28:27;17.70;71.80
86371;SHT35;77020;52.136;5.424;2024-03-22T09:30:56;17.80;70.87
86371;SHT35;77020;52.136;5.424;2024-03-22T09:33:25;17.87;70.07
86371;SHT35;77020;52.136;5.424;2024-03-22T09:35:54;17.94;69.22
86371;SHT35;77020;52.136;5.424;2024-03-22T09:38:23;18.01;68.71
86371;SHT35;77020;52.136;5.424;2024-03-22T09:40:52;18.07;67.98
86371;SHT35;77020;52.136;5.424;2024-03-22T09:43:22;18.12;67.82
86371;SHT35;77020;52.136;5.424;2024-03-22T09:45:51;18.18;67.70
86371;SHT35;77020;52.136;5.424;2024-03-22T09:48:20;18.23;67.28
86371;SHT35;77020;52.136;5.424;2024-03-22T09:50:50;18.28;66.90
86371;SHT35;77020;52.136;5.424;2024-03-22T09:53:20;18.32;66.92
86371;SHT35;77020;52.136;5.424;2024-03-22T09:55:50;18.36;66.51
86371;SHT35;77020;52.136;5.424;2024-03-22T09:58:19;18.39;66.59
86371;SHT35;77020;52.136;5.424;2024-03-22T10:00:48;18.42;66.22
86371;SHT35;77020;52.136;5.424;2024-03-22T10:03:16;18.44;66.03
86371;SHT35;77020;52.136;5.424;2024-03-22T10:05:45;18.47;65.92
86371;SHT35;77020;52.136;5.424;2024-03-22T10:08:14;18.50;65.86
86371;SHT35;77020;52.136;5.424;2024-03-22T10:10:43;18.52;65.61
86371;SHT35;77020;52.136;5.424;2024-03-22T10:13:12;18.55;65.46
86371;SHT35;77020;52.136;5.424;2024-03-22T10:15:41;18.58;65.41
86371;SHT35;77020;52.136;5.424;2024-03-22T10:18:10;18.59;65.02
86371;SHT35;77020;52.136;5.424;2024-03-22T10:20:41;18.60;65.03
86371;SHT35;77020;52.136;5.424;2024-03-22T10:23:10;18.61;65.52
86371;SHT35;77020;52.136;5.424;2024-03-22T10:25:39;18.62;65.41
86371;SHT35;77020;52.136;5.424;2024-03-22T10:28:08;18.63;65.38
86371;SHT35;77020;52.136;5.424;2024-03-22T10:30:40;18.64;65.50
86371;SHT35;77020;52.136;5.424;2024-03-22T10:33:11;18.66;65.55
86371;SHT35;77020;52.136;5.424;2024-03-22T10:35:41;18.67;65.90
86371;SHT35;77020;52.136;5.424;2024-03-22T10:38:12;18.71;66.59
86371;SHT35;77020;52.136;5.424;2024-03-22T10:40:44;18.75;66.28
86371;SHT35;77020;52.136;5.424;2024-03-22T10:43:14;18.78;66.21
86371;SHT35;77020;52.136;5.424;2024-03-22T10:45:48;18.81;66.13
86371;SHT35;77020;52.136;5.424;2024-03-22T10:48:21;18.84;65.85
86371;SHT35;77020;52.136;5.424;2024-03-22T10:50:56;18.89;66.06
86371;SHT35;77020;52.136;5.424;2024-03-22T10:53:31;18.92;65.84
86371;SHT35;77020;52.136;5.424;2024-03-22T10:56:02;18.95;65.71
86371;SHT35;77020;52.136;5.424;2024-03-22T10:58:33;18.98;65.49
86371;SHT35;77020;52.136;5.424;2024-03-22T11:01:02;19.00;65.41
86371;SHT35;77020;52.136;5.424;2024-03-22T11:03:32;19.02;65.29
86371;SHT35;77020;52.136;5.424;2024-03-22T11:06:01;19.05;65.45
86371;SHT35;77020;52.136;5.424;2024-03-22T11:08:30;19.07;65.21
86371;SHT35;77020;52.136;5.424;2024-03-22T11:11:11;19.10;65.04
86371;SHT35;77020;52.136;5.424;2024-03-22T11:13:40;19.13;64.68
86371;SHT35;77020;52.136;5.424;2024-03-22T11:16:10;19.15;64.60
86371;SHT35;77020;52.136;5.424;2024-03-22T11:18:39;19.17;64.35
86371;SHT35;77020;52.136;5.424;2024-03-22T11:21:09;19.19;64.24
86371;SHT35;77020;52.136;5.424;2024-03-22T11:23:39;19.20;64.19
86371;SHT35;77020;52.136;5.424;2024-03-22T11:26:09;19.21;63.97
86371;SHT35;77020;52.136;5.424;2024-03-22T11:28:42;19.22;63.87
86371;SHT35;77020;52.136;5.424;2024-03-22T11:31:12;19.23;63.23
86371;SHT35;77020;52.136;5.424;2024-03-22T11:33:41;19.24;63.55
86371;SHT35;77020;52.136;5.424;2024-03-22T11:36:10;19.25;63.51
86371;SHT35;77020;52.136;5.424;2024-03-22T11:38:39;19.26;63.73
86371;SHT35;77020;52.136;5.424;2024-03-22T11:41:08;19.27;63.83
86371;SHT35;77020;52.136;5.424;2024-03-22T11:43:38;19.29;63.88
86371;SHT35;77020;52.136;5.424;2024-03-22T11:46:07;19.30;63.95
86371;SHT35;77020;52.136;5.424;2024-03-22T11:48:41;19.32;63.91
86371;SHT35;77020;52.136;5.424;2024-03-22T11:51:11;19.33;63.79
86371;SHT35;77020;52.136;5.424;2024-03-22T11:53:51;19.34;63.66
86371;SHT35;77020;52.136;5.424;2024-03-22T11:56:24;19.35;63.68
86371;SHT35;77020;52.136;5.424;2024-03-22T11:58:59;19.36;63.78
86371;SHT35;77020;52.136;5.424;2024-03-22T12:01:30;19.37;63.72
86371;SHT35;77020;52.136;5.424;2024-03-22T12:03:59;19.38;63.79
86371;SHT35;77020;52.136;5.424;2024-03-22T12:06:28;19.39;63.79
86371;SHT35;77020;52.136;5.424;2024-03-22T12:08:57;19.39;63.82
86371;SHT35;77020;52.136;5.424;2024-03-22T12:11:26;19.40;63.79
86371;SHT35;77020;52.136;5.424;2024-03-22T12:13:55;19.40;63.87
86371;SHT35;77020;52.136;5.424;2024-03-22T12:16:24;19.41;63.73
86371;SHT35;77020;52.136;5.424;2024-03-22T12:18:53;19.41;63.81
86371;SHT35;77020;52.136;5.424;2024-03-22T12:21:22;19.42;63.85
86371;SHT35;77020;52.136;5.424;2024-03-22T12:23:51;19.42;63.95
86371;SHT35;77020;52.136;5.424;2024-03-22T12:26:21;19.42;64.10
86371;SHT35;77020;52.136;5.424;2024-03-22T12:28:50;19.42;64.12
86371;SHT35;77020;52.136;5.424;2024-03-22T12:31:19;19.43;64.13
86371;SHT35;77020;52.136;5.424;2024-03-22T12:33:48;19.45;63.91
86371;SHT35;77020;52.136;5.424;2024-03-22T12:36:17;19.48;63.82
86371;SHT35;77020;52.136;5.424;2024-03-22T12:38:46;19.49;64.05
86371;SHT35;77020;52.136;5.424;2024-03-22T12:41:15;19.50;64.18
86371;SHT35;77020;52.136;5.424;2024-03-22T12:43:44;19.52;63.95
86371;SHT35;77020;52.136;5.424;2024-03-22T12:46:16;19.52;63.83
86371;SHT35;77020;52.136;5.424;2024-03-22T12:48:45;19.53;63.98
86371;SHT35;77020;52.136;5.424;2024-03-22T12:51:15;19.55;63.79
86371;SHT35;77020;52.136;5.424;2024-03-22T12:53:44;19.57;63.64
86371;SHT35;77020;52.136;5.424;2024-03-22T12:56:13;19.57;63.89
86371;SHT35;77020;52.136;5.424;2024-03-22T12:58:42;19.55;63.99
86371;SHT35;77020;52.136;5.424;2024-03-22T13:01:11;19.56;63.95
86371;SHT35;77020;52.136;5.424;2024-03-22T13:03:40;19.57;64.06
86371;SHT35;77020;52.136;5.424;2024-03-22T13:06:09;19.57;63.96
86371;SHT35;77020;52.136;5.424;2024-03-22T13:08:40;19.57;63.85
86371;SHT35;77020;52.136;5.424;2024-03-22T13:11:09;19.56;63.79
86371;SHT35;77020;52.136;5.424;2024-03-22T13:13:38;19.57;63.82
86371;SHT35;77020;52.136;5.424;2024-03-22T13:16:07;19.58;63.91
86371;SHT35;77020;52.136;5.424;2024-03-22T13:18:38;19.58;63.76
86371;SHT35;77020;52.136;5.424;2024-03-22T13:21:07;19.58;63.67
86371;SHT35;77020;52.136;5.424;2024-03-22T13:23:36;19.57;63.89
86371;SHT35;77020;52.136;5.424;2024-03-22T13:26:06;19.57;63.76
86371;SHT35;77020;52.136;5.424;2024-03-22T13:28:35;19.59;63.75
86371;SHT35;77020;52.136;5.424;2024-03-22T13:31:04;19.59;63.64
86371;SHT35;77020;52.136;5.424;2024-03-22T13:33:34;19.59;63.66
86371;SHT35;77020;52.136;5.424;2024-03-22T13:36:03;19.59;63.63
86371;SHT35;77020;52.136;5.424;2024-03-22T13:38:32;19.59;63.64
86371;SHT35;77020;52.136;5.424;2024-03-22T13:41:05;19.59;63.62
86371;SHT35;77020;52.136;5.424;2024-03-22T13:43:36;19.60;63.66
86371;SHT35;77020;52.136;5.424;2024-03-22T13:46:06;19.60;63.64
86371;SHT35;77020;52.136;5.424;2024-03-22T13:48:39;19.62;63.70
86371;SHT35;77020;52.136;5.424;2024-03-22T13:51:08;19.63;63.57
86371;SHT35;77020;52.136;5.424;2024-03-22T13:53:37;19.63;63.62
86371;SHT35;77020;52.136;5.424;2024-03-22T13:56:06;19.64;63.61
86371;SHT35;77020;52.136;5.424;2024-03-22T13:58:35;19.64;63.42
86371;SHT35;77020;52.136;5.424;2024-03-22T14:01:04;19.65;63.43
86371;SHT35;77020;52.136;5.424;2024-03-22T14:03:33;19.66;63.40
86371;SHT35;77020;52.136;5.424;2024-03-22T14:06:03;19.66;63.32
86371;SHT35;77020;52.136;5.424;2024-03-22T14:08:32;19.65;63.27
86371;SHT35;77020;52.136;5.424;2024-03-22T14:11:01;19.64;63.28
86371;SHT35;77020;52.136;5.424;2024-03-22T14:13:30;19.63;63.38
86371;SHT35;77020;52.136;5.424;2024-03-22T14:15:59;19.61;63.48
86371;SHT35;77020;52.136;5.424;2024-03-22T14:18:28;19.60;63.53
86371;SHT35;77020;52.136;5.424;2024-03-22T14:20:57;19.58;63.63
86371;SHT35;77020;52.136;5.424;2024-03-22T14:23:26;19.57;63.72
86371;SHT35;77020;52.136;5.424;2024-03-22T14:25:58;19.55;63.76
86371;SHT35;77020;52.136;5.424;2024-03-22T14:28:27;19.54;63.78
86371;SHT35;77020;52.136;5.424;2024-03-22T14:30:56;19.52;63.87
86371;SHT35;77020;52.136;5.424;2024-03-22T14:33:25;19.50;63.94
86371;SHT35;77020;52.136;5.424;2024-03-22T14:35:54;19.50;63.98
86371;SHT35;77020;52.136;5.424;2024-03-22T14:38:23;19.49;63.95
86371;SHT35;77020;52.136;5.424;2024-03-22T14:40:52;19.47;64.06
86371;SHT35;77020;52.136;5.424;2024-03-22T14:43:22;19.45;64.08
86371;SHT35;77020;52.136;5.424;2024-03-22T14:45:52;19.44;64.11
86371;SHT35;77020;52.136;5.424;2024-03-22T14:48:24;19.42;64.20
86371;SHT35;77020;52.136;5.424;2024-03-22T14:50:53;19.41;64.36
86371;SHT35;77020;52.136;5.424;2024-03-22T14:53:22;19.40;64.33
86371;SHT35;77020;52.136;5.424;2024-03-22T14:55:56;19.38;64.37
86371;SHT35;77020;52.136;5.424;2024-03-22T14:58:25;19.38;64.40
86371;SHT35;77020;52.136;5.424;2024-03-22T15:00:55;19.37;64.44
86371;SHT35;77020;52.136;5.424;2024-03-22T15:03:24;19.36;64.43
86371;SHT35;77020;52.136;5.424;2024-03-22T15:05:55;19.36;64.53
86371;SHT35;77020;52.136;5.424;2024-03-22T15:08:27;19.36;64.92
86371;SHT35;77020;52.136;5.424;2024-03-22T15:10:56;19.39;65.24
86371;SHT35;77020;52.136;5.424;2024-03-22T15:13:25;19.43;65.11
86371;SHT35;77020;52.136;5.424;2024-03-22T15:15:58;19.48;65.29
86371;SHT35;77020;52.136;5.424;2024-03-22T15:18:27;19.53;65.26
86371;SHT35;77020;52.136;5.424;2024-03-22T15:20:56;19.59;65.24
86371;SHT35;77020;52.136;5.424;2024-03-22T15:23:25;19.65;65.08
86371;SHT35;77020;52.136;5.424;2024-03-22T15:25:54;19.72;64.84
86371;SHT35;77020;52.136;5.424;2024-03-22T15:28:23;19.79;64.70
86371;SHT35;77020;52.136;5.424;2024-03-22T15:30:52;19.85;64.46
86371;SHT35;77020;52.136;5.424;2024-03-22T15:33:21;19.93;64.51
86371;SHT35;77020;52.136;5.424;2024-03-22T15:35:50;20.02;64.16
86371;SHT35;77020;52.136;5.424;2024-03-22T15:38:19;20.09;63.91
86371;SHT35;77020;52.136;5.424;2024-03-22T15:40:48;20.16;63.46
86371;SHT35;77020;52.136;5.424;2024-03-22T15:45:24;20.97;60.80
86371;SHT35;77020;52.136;5.424;2024-03-22T15:47:54;21.03;60.62
86371;SHT35;77020;52.136;5.424;2024-03-22T15:50:23;21.08;60.37
86371;SHT35;77020;52.136;5.424;2024-03-22T15:52:52;21.10;60.24
86371;SHT35;77020;52.136;5.424;2024-03-22T16:42:49;21.39;58.01
86371;SHT35;77020;52.136;5.424;2024-03-22T16:45:16;21.13;59.47
86371;SHT35;77484;52.138;5.490;2024-03-22T16:47:43;21.10;59.79
86371;SHT35;77484;52.138;5.490;2024-03-22T16:50:10;21.10;60.05
86371;SHT35;77484;52.138;5.490;2024-03-22T16:52:38;21.13;60.19
86371;SHT35;77484;52.138;5.490;2024-03-22T16:56:14;21.13;60.28
86371;SHT35;77484;52.138;5.490;2024-03-22T16:58:41;21.15;60.41
86371;SHT35;77484;52.138;5.490;2024-03-22T17:01:08;21.22;60.19
86371;SHT35;77484;52.138;5.490;2024-03-22T17:03:35;21.26;60.11
86371;SHT35;77484;52.138;5.490;2024-03-22T17:06:04;21.29;60.02
86371;SHT35;77484;52.138;5.490;2024-03-22T17:08:32;21.30;60.03
86371;SHT35;77484;52.138;5.490;2024-03-22T17:10:59;21.31;60.03
86371;SHT35;77484;52.138;5.490;2024-03-22T17:13:26;21.30;60.28
86371;SHT35;77484;52.138;5.490;2024-03-22T17:15:53;21.30;60.24
86371;SHT35;77484;52.138;5.490;2024-03-22T17:18:22;21.30;60.30
86371;SHT35;77484;52.138;5.490;2024-03-22T17:20:49;21.30;60.35
86371;SHT35;77484;52.138;5.490;2024-03-22T17:23:17;21.30;60.41
86371;SHT35;77484;52.138;5.490;2024-03-22T17:25:44;21.29;60.44
86371;SHT35;77484;52.138;5.490;2024-03-22T17:28:11;21.29;60.43
86371;SHT35;77484;52.138;5.490;2024-03-22T17:30:38;21.27;60.41
86371;SHT35;77484;52.138;5.490;2024-03-22T17:33:05;21.25;60.42
86371;SHT35;77484;52.138;5.490;2024-03-22T17:35:32;21.22;60.50
86371;SHT35;77484;52.138;5.490;2024-03-22T17:37:59;21.18;60.57
86371;SHT35;77484;52.138;5.490;2024-03-22T17:40:27;21.14;60.68
